메인 페이지
METAR-TAF:

METAR-TAF

공항 :

Islip, 뉴욕, 미국

위도: 40-47-38N, 경도: 073-06-06W, 고도: 30m

현재 날씨관측

예보는 49분 전, 18:56시(UTC)에 발표되었습니다.
서북서18kt, 순간 최대 풍속 26kt
온도 11°C
습도 58%
기압 1012 hPa
시정: 16.1km
고도 3500ft 상공 구름 보통
고도 25000ft 상공 구름 많음

METAR: KISP 231856Z 30018G26KT 10SM SCT035 BKN250 11/03 A2988 RMK AO2 PK WND 32030/1817 SLP118 T01110028

시각: 14:45 (19:45 UTC)

예보

예보는 2 시간 25분 전, 17:20시(UTC)에 발표되었습니다.
예보 대상 시간: 23일 18시부터 24일 18시까지 (UTC)
북서18kt, 순간 최대 풍속 29kt
시정: 10km
고도 4000ft 상공 구름 보통
23일 2300시부터 (UTC)
북서15kt, 순간 최대 풍속 25kt
시정: 10km
고도 4000ft 상공 구름 조금
24일 0600시부터 (UTC)
서북서11kt
시정: 10km
맑음
24일 1300시부터 (UTC)
북서12kt, 순간 최대 풍속 20kt
시정: 10km
맑음

TAF: KISP 231720Z 2318/2418 31018G29KT P6SM SCT040 FM232300 31015G25KT P6SM FEW040 FM240600 30011KT P6SM SKC FM241300 31012G20KT P6SM SKC

4,000개 이상의 공항 관측 자료 및 예보 (METAR 및 TAF 보고).

지도상에서 검색 가능한 기상관측소가 노란 점과 빨간 점으로 표시되어 있습니다.

기상관측소 명을 보려면 표시 위로 마우스를 이동하세요.

날씨 관측과 예보를 보려면 클릭하세요.

지도 변경 : 확대하려면 엑스 표시가 있는 녹색 버튼, 축소하려면 빼기 표시가 있는 녹색 버튼, 다음 페이지의 지도를 보려면 녹색 화살표를 클릭하세요.


METAR-TAF: